Time;durP1;ratioP1;P1;durP2;ratioP2;P2;SDS_P1;SDS_P2;PMS_P1;PMS_P2;Temp;Humidity;BMP_temperature;BMP_pressure;BME280_temperature;BME280_humidity;BME280_pressure;Samples;Min_cycle;Max_cycle;Signal;HPM_P1;HPM_P2
2021/12/02 00:00:28;;;;;;;8.80;1.27;;;5.30;90.40;;;;;;5002304;28;38122;-55
2021/12/02 00:02:55;;;;;;;11.10;1.73;;;5.20;90.40;;;;;;5002839;28;38459;-54
2021/12/02 00:05:24;;;;;;;11.27;1.48;;;5.20;90.50;;;;;;5001786;28;36296;-55
2021/12/02 00:07:52;;;;;;;8.82;1.40;;;5.10;90.50;;;;;;5002433;28;37603;-55
2021/12/02 00:10:19;;;;;;;7.10;1.40;;;5.10;90.60;;;;;;5002801;28;39567;-54
2021/12/02 00:12:50;;;;;;;22.00;3.33;;;5.00;90.60;;;;;;5002185;28;36268;-54
2021/12/02 00:15:23;;;;;;;11.48;1.23;;;5.00;90.70;;;;;;5002609;28;37639;-54
2021/12/02 00:17:57;;;;;;;8.40;1.38;;;5.00;90.80;;;;;;5001878;28;37356;-54
2021/12/02 00:23:34;;;;;;;6.18;1.08;;;4.90;90.80;;;;;;5002037;28;38820;-55
2021/12/02 00:26:04;;;;;;;6.97;1.00;;;4.90;90.90;;;;;;5001309;28;38059;-54
2021/12/02 00:28:35;;;;;;;5.82;1.00;;;4.90;90.90;;;;;;5002018;28;37764;-54
2021/12/02 00:31:03;;;;;;;8.77;1.33;;;4.80;91.10;;;;;;5001880;28;41361;-54
2021/12/02 00:33:33;;;;;;;5.78;1.23;;;4.80;90.80;;;;;;5002173;28;37914;-54
2021/12/02 00:36:01;;;;;;;6.00;1.17;;;4.80;90.80;;;;;;5002587;28;36122;-55
2021/12/02 00:38:29;;;;;;;11.65;1.63;;;4.80;90.70;;;;;;5002440;28;37563;-54
2021/12/02 00:40:56;;;;;;;8.88;1.50;;;5.00;90.80;;;;;;5001928;28;38247;-55
2021/12/02 00:43:24;;;;;;;7.97;1.25;;;5.00;90.60;;;;;;5001777;28;38119;-54
2021/12/02 00:45:53;;;;;;;10.23;1.40;;;5.10;90.50;;;;;;5001944;28;39123;-54
2021/12/02 00:48:21;;;;;;;6.78;1.23;;;5.10;90.40;;;;;;5002203;28;37654;-55
2021/12/02 00:50:49;;;;;;;6.95;1.45;;;5.20;90.40;;;;;;5001690;28;37017;-54
2021/12/02 00:53:21;;;;;;;7.55;1.02;;;5.30;90.30;;;;;;5001612;28;36527;-54
2021/12/02 00:55:50;;;;;;;5.65;0.90;;;5.20;90.20;;;;;;5003864;28;36330;-55
2021/12/02 00:58:20;;;;;;;7.20;1.30;;;5.20;90.20;;;;;;5005821;28;37753;-55
2021/12/02 01:00:51;;;;;;;11.88;1.65;;;5.20;90.10;;;;;;5004421;28;38240;-54
2021/12/02 01:03:21;;;;;;;8.07;1.08;;;5.10;90.20;;;;;;5005628;28;37781;-55
2021/12/02 01:05:49;;;;;;;2.67;0.65;;;5.10;90.40;;;;;;5004905;28;35802;-55
2021/12/02 01:08:17;;;;;;;6.15;1.02;;;5.10;90.10;;;;;;5004132;28;37533;-54
2021/12/02 01:10:44;;;;;;;5.50;0.73;;;5.10;89.50;;;;;;5005311;28;38298;-55
2021/12/02 01:13:12;;;;;;;4.15;0.57;;;5.10;89.20;;;;;;5005392;28;38148;-54
2021/12/02 01:15:40;;;;;;;5.78;0.55;;;5.10;89.20;;;;;;5004294;28;37281;-54
2021/12/02 01:18:08;;;;;;;3.75;0.70;;;5.10;89.80;;;;;;5004635;28;36303;-54
2021/12/02 01:20:39;;;;;;;5.10;1.00;;;5.10;90.20;;;;;;5004316;28;38716;-55
2021/12/02 01:23:09;;;;;;;6.13;0.70;;;5.10;90.30;;;;;;5003809;28;37699;-54
2021/12/02 01:25:38;;;;;;;3.05;0.45;;;5.10;90.50;;;;;;5004652;28;37314;-54
2021/12/02 01:28:06;;;;;;;2.08;0.50;;;5.10;90.70;;;;;;5003755;28;39504;-55
2021/12/02 01:30:34;;;;;;;3.78;0.55;;;4.80;90.80;;;;;;5003068;28;38348;-55
2021/12/02 01:33:03;;;;;;;3.92;0.60;;;5.00;91.00;;;;;;5003645;28;36552;-54
2021/12/02 01:35:33;;;;;;;5.75;0.70;;;5.00;91.20;;;;;;5004869;28;36614;-54
2021/12/02 01:38:03;;;;;;;7.03;0.65;;;5.10;91.60;;;;;;5004147;28;37746;-54
2021/12/02 01:40:31;;;;;;;5.70;1.05;;;5.10;91.50;;;;;;5005037;28;38034;-54
2021/12/02 01:42:59;;;;;;;9.65;1.00;;;5.10;91.60;;;;;;5004728;28;37678;-54
2021/12/02 01:45:30;;;;;;;4.85;0.90;;;5.10;91.70;;;;;;5003450;28;35267;-54
2021/12/02 01:47:58;;;;;;;6.63;0.68;;;5.20;91.90;;;;;;5004229;28;38705;-55
2021/12/02 01:50:27;;;;;;;5.30;1.10;;;5.20;92.00;;;;;;5004406;28;38672;-55
2021/12/02 01:52:57;;;;;;;9.00;0.90;;;5.30;92.10;;;;;;5004554;28;37888;-54
2021/12/02 01:55:28;;;;;;;22.95;2.53;;;5.30;92.10;;;;;;5004301;28;36504;-55
2021/12/02 01:58:00;;;;;;;4.75;0.68;;;5.30;92.20;;;;;;5004616;28;36276;-55
2021/12/02 02:00:32;;;;;;;9.98;0.85;;;5.30;92.20;;;;;;5004016;28;37111;-54
2021/12/02 02:03:02;;;;;;;6.13;0.73;;;5.30;92.40;;;;;;5003739;28;37569;-55
2021/12/02 02:05:31;;;;;;;10.15;1.63;;;5.30;92.50;;;;;;5003899;28;36507;-55
2021/12/02 02:08:02;;;;;;;4.78;0.98;;;5.20;92.40;;;;;;5003701;28;37481;-54
2021/12/02 02:10:33;;;;;;;2.97;0.77;;;5.20;92.60;;;;;;5004189;28;36985;-54
2021/12/02 02:13:05;;;;;;;7.78;1.70;;;5.20;92.60;;;;;;5003377;28;37510;-54
2021/12/02 02:15:33;;;;;;;3.67;0.95;;;5.10;92.60;;;;;;5003697;28;35334;-54
2021/12/02 02:18:06;;;;;;;5.03;1.05;;;5.10;92.70;;;;;;5002638;28;37665;-54
2021/12/02 02:20:41;;;;;;;7.70;1.10;;;5.00;92.60;;;;;;5003638;28;37093;-55
2021/12/02 02:23:11;;;;;;;5.18;1.10;;;5.00;92.60;;;;;;5002771;28;37210;-54
2021/12/02 02:25:39;;;;;;;4.18;0.80;;;5.00;92.70;;;;;;5003527;28;36981;-54
2021/12/02 02:28:07;;;;;;;7.10;0.80;;;4.90;92.80;;;;;;5003763;28;38014;-54
2021/12/02 02:30:35;;;;;;;4.00;0.55;;;4.90;92.80;;;;;;5003345;28;38016;-54
2021/12/02 02:33:02;;;;;;;5.32;0.70;;;4.90;92.80;;;;;;5003010;28;37964;-54
2021/12/02 02:35:30;;;;;;;5.57;0.98;;;4.80;92.90;;;;;;5003744;28;35237;-54
2021/12/02 02:38:00;;;;;;;3.65;0.50;;;4.80;93.10;;;;;;5003399;28;37773;-54
2021/12/02 02:40:29;;;;;;;6.30;0.70;;;4.90;93.10;;;;;;5003877;28;38110;-54
2021/12/02 02:43:00;;;;;;;3.42;0.82;;;4.90;93.20;;;;;;5002442;28;35908;-55
2021/12/02 02:45:27;;;;;;;7.38;1.00;;;5.00;93.20;;;;;;5003614;28;36699;-54
2021/12/02 02:47:55;;;;;;;5.05;0.50;;;5.00;93.20;;;;;;5004373;28;36201;-55
2021/12/02 02:50:23;;;;;;;7.43;0.52;;;5.00;93.20;;;;;;5002531;28;38291;-54
2021/12/02 02:53:02;;;;;;;3.58;0.45;;;5.00;93.20;;;;;;5001010;28;39035;-55
2021/12/02 02:55:34;;;;;;;8.07;0.80;;;5.00;93.20;;;;;;5003298;28;37921;-55
2021/12/02 02:58:06;;;;;;;2.13;0.43;;;5.00;93.30;;;;;;5002238;28;39133;-54
2021/12/02 03:00:36;;;;;;;4.30;0.63;;;5.10;93.20;;;;;;5003311;28;38313;-54
2021/12/02 03:03:20;;;;;;;1.67;0.52;;;5.10;93.30;;;;;;5002001;28;36577;-54
2021/12/02 03:06:03;;;;;;;3.03;0.70;;;5.10;93.40;;;;;;5003364;28;38767;-54
2021/12/02 03:08:38;;;;;;;5.18;1.98;;;5.10;93.40;;;;;;5003278;28;37828;-55
2021/12/02 03:11:10;;;;;;;3.13;0.50;;;5.10;93.30;;;;;;5003580;28;38714;-54
2021/12/02 03:13:46;;;;;;;4.22;0.55;;;5.10;93.10;;;;;;5002022;28;36492;-54
2021/12/02 03:18:59;;;;;;;1.30;0.10;;;5.00;92.90;;;;;;5002213;28;37450;-54
2021/12/02 03:21:28;;;;;;;0.73;0.10;;;4.90;92.80;;;;;;5001972;28;37876;-54
2021/12/02 03:23:58;;;;;;;2.05;0.20;;;4.90;92.80;;;;;;5003004;28;37934;-54
2021/12/02 03:26:28;;;;;;;0.32;0.10;;;4.80;92.80;;;;;;5003086;28;37818;-54
2021/12/02 03:28:56;;;;;;;0.47;0.10;;;4.80;92.70;;;;;;5002282;28;39097;-55
2021/12/02 03:31:24;;;;;;;1.63;0.45;;;4.70;92.70;;;;;;5003605;28;39454;-54
2021/12/02 03:33:52;;;;;;;3.75;0.15;;;4.60;92.80;;;;;;5002111;28;37510;-55
2021/12/02 03:36:20;;;;;;;2.25;0.30;;;4.60;92.80;;;;;;5001551;28;36604;-54
2021/12/02 03:38:48;;;;;;;1.25;0.13;;;4.50;92.70;;;;;;5002148;28;37236;-54
2021/12/02 03:41:16;;;;;;;1.58;0.20;;;4.50;92.70;;;;;;5001626;28;38942;-54
2021/12/02 03:43:46;;;;;;;1.55;0.20;;;4.40;92.70;;;;;;5002918;28;36827;-55
2021/12/02 03:46:16;;;;;;;1.55;0.32;;;4.30;92.70;;;;;;5001977;28;36914;-54
2021/12/02 03:48:44;;;;;;;1.02;0.30;;;4.30;92.70;;;;;;5003135;28;37468;-54
2021/12/02 03:51:12;;;;;;;4.70;0.63;;;4.20;92.80;;;;;;5002395;28;38307;-54
2021/12/02 03:53:39;;;;;;;2.10;0.35;;;4.20;92.80;;;;;;5002809;28;37924;-54
2021/12/02 03:56:08;;;;;;;0.77;0.20;;;4.20;92.80;;;;;;5002642;28;37398;-54
2021/12/02 03:58:36;;;;;;;0.75;0.17;;;4.10;92.80;;;;;;5002020;28;40410;-54
2021/12/02 04:01:06;;;;;;;1.45;0.40;;;4.10;92.70;;;;;;5002498;28;38233;-54
2021/12/02 04:03:33;;;;;;;1.90;0.30;;;4.00;92.70;;;;;;5002408;28;39500;-54
2021/12/02 04:06:01;;;;;;;2.47;0.30;;;4.00;92.80;;;;;;5002192;28;37022;-54
2021/12/02 04:08:31;;;;;;;1.67;0.30;;;3.90;92.80;;;;;;5002328;28;37337;-54
2021/12/02 04:11:13;;;;;;;3.50;0.40;;;3.90;92.80;;;;;;5001773;28;38187;-54
2021/12/02 04:13:48;;;;;;;3.67;0.95;;;3.90;92.90;;;;;;5002105;28;36616;-55
2021/12/02 04:16:18;;;;;;;1.20;0.20;;;3.90;93.00;;;;;;5002427;28;37820;-54
2021/12/02 04:18:45;;;;;;;4.78;0.63;;;4.00;93.00;;;;;;5001594;28;40316;-54
2021/12/02 04:21:13;;;;;;;2.83;0.38;;;4.00;93.10;;;;;;5001699;28;39441;-55
2021/12/02 04:23:40;;;;;;;4.28;0.75;;;4.00;93.10;;;;;;5001575;28;36523;-54
2021/12/02 04:26:07;;;;;;;5.35;0.52;;;4.00;93.10;;;;;;5002058;28;36456;-55
2021/12/02 04:28:35;;;;;;;5.07;0.65;;;4.00;93.20;;;;;;5001404;28;37697;-54
2021/12/02 04:31:02;;;;;;;3.83;0.50;;;4.00;93.40;;;;;;5002035;28;38641;-54
2021/12/02 04:33:32;;;;;;;3.05;0.20;;;4.10;93.40;;;;;;5001218;28;38151;-54
2021/12/02 04:36:00;;;;;;;3.40;0.50;;;4.10;93.30;;;;;;5001112;28;35282;-54
2021/12/02 04:38:28;;;;;;;3.80;0.40;;;4.10;93.30;;;;;;5001985;28;36275;-55
2021/12/02 04:40:56;;;;;;;3.95;0.50;;;4.10;93.30;;;;;;5001976;28;38323;-55
2021/12/02 04:43:23;;;;;;;1.88;0.40;;;4.10;93.40;;;;;;5001609;28;37982;-54
2021/12/02 04:45:51;;;;;;;2.80;0.40;;;4.20;93.40;;;;;;5002711;28;35250;-54
2021/12/02 04:48:19;;;;;;;5.68;0.50;;;4.20;93.50;;;;;;5002041;28;37840;-54
2021/12/02 04:50:48;;;;;;;2.35;0.30;;;4.20;93.50;;;;;;5001799;28;38408;-54
2021/12/02 04:53:16;;;;;;;3.72;0.63;;;4.30;93.50;;;;;;5001872;28;39382;-54
2021/12/02 04:55:43;;;;;;;2.72;0.40;;;4.30;93.50;;;;;;5002222;28;36012;-54
2021/12/02 04:58:11;;;;;;;2.50;0.40;;;4.30;93.50;;;;;;5002311;28;37435;-54
2021/12/02 05:00:38;;;;;;;2.05;0.30;;;4.30;93.50;;;;;;5000180;28;36829;-55
2021/12/02 05:03:06;;;;;;;4.43;0.63;;;4.30;93.50;;;;;;5000104;28;37831;-54
2021/12/02 05:05:34;;;;;;;1.92;0.40;;;4.40;93.70;;;;;;5001313;28;36807;-54
2021/12/02 05:08:03;;;;;;;5.00;1.25;;;4.40;93.70;;;;;;5000229;28;38134;-54
2021/12/02 05:10:31;;;;;;;3.15;0.25;;;4.40;93.70;;;;;;5001291;28;39308;-54
2021/12/02 05:12:59;;;;;;;3.42;0.47;;;4.40;93.70;;;;;;5000034;28;38153;-55
2021/12/02 05:15:26;;;;;;;5.03;0.38;;;4.50;93.90;;;;;;5000467;28;38115;-55
2021/12/02 05:17:53;;;;;;;2.28;0.50;;;4.50;93.90;;;;;;5000676;28;38382;-54
2021/12/02 05:20:21;;;;;;;3.08;0.40;;;4.50;93.90;;;;;;5002012;28;37943;-54
2021/12/02 05:22:48;;;;;;;2.08;0.40;;;4.60;93.80;;;;;;5000581;28;36657;-54
2021/12/02 05:25:17;;;;;;;4.63;0.50;;;4.60;93.80;;;;;;5000406;28;35609;-54
2021/12/02 05:27:45;;;;;;;4.22;0.43;;;4.60;93.60;;;;;;4999786;28;39303;-55
2021/12/02 05:30:13;;;;;;;1.40;0.25;;;4.50;93.40;;;;;;5001870;28;38441;-55
2021/12/02 05:32:40;;;;;;;1.60;0.20;;;4.40;93.50;;;;;;4998899;28;38880;-54
2021/12/02 05:35:09;;;;;;;1.92;0.30;;;4.30;93.40;;;;;;5001007;28;37351;-55
2021/12/02 05:37:36;;;;;;;2.95;0.30;;;4.30;93.50;;;;;;4998583;28;37928;-55
2021/12/02 05:40:04;;;;;;;3.80;0.35;;;4.20;93.50;;;;;;5000175;28;39208;-54
2021/12/02 05:42:32;;;;;;;2.30;0.38;;;4.20;93.80;;;;;;5003291;28;38003;-54
2021/12/02 05:45:00;;;;;;;7.97;0.57;;;4.10;93.60;;;;;;5003064;28;36901;-54
2021/12/02 05:47:27;;;;;;;2.13;0.30;;;4.10;93.70;;;;;;5003346;28;40478;-54
2021/12/02 05:49:54;;;;;;;2.78;0.47;;;4.10;93.70;;;;;;5004141;28;38991;-54
2021/12/02 05:52:22;;;;;;;4.22;0.38;;;4.00;93.80;;;;;;5003179;28;38971;-54
2021/12/02 05:54:50;;;;;;;1.45;0.30;;;4.00;93.90;;;;;;5003768;28;36410;-54
2021/12/02 05:57:17;;;;;;;2.03;0.60;;;4.00;94.00;;;;;;5004601;28;38474;-54
2021/12/02 05:59:46;;;;;;;3.30;0.70;;;4.00;94.10;;;;;;5003968;28;38333;-55
2021/12/02 06:02:13;;;;;;;2.58;0.60;;;4.10;94.20;;;;;;5002005;28;37955;-54
2021/12/02 06:04:42;;;;;;;7.15;0.57;;;4.10;94.10;;;;;;5004073;28;35152;-54
2021/12/02 06:07:10;;;;;;;3.65;0.60;;;4.10;94.00;;;;;;5003213;28;37320;-54
2021/12/02 06:09:37;;;;;;;5.43;0.70;;;4.00;94.10;;;;;;5003411;28;38033;-55
2021/12/02 06:12:05;;;;;;;4.07;0.30;;;4.00;94.20;;;;;;5002453;28;38969;-54
2021/12/02 06:14:33;;;;;;;1.25;0.50;;;4.00;94.30;;;;;;5004075;28;36178;-54
2021/12/02 06:17:01;;;;;;;4.97;0.50;;;4.10;94.30;;;;;;5003101;28;36192;-54
2021/12/02 06:19:29;;;;;;;1.85;0.40;;;4.00;94.40;;;;;;5004326;28;38591;-54
2021/12/02 06:21:56;;;;;;;3.30;0.40;;;4.10;94.50;;;;;;5003415;28;37910;-54
2021/12/02 06:24:30;;;;;;;3.30;0.65;;;4.20;94.60;;;;;;5002832;28;36339;-54
2021/12/02 06:26:58;;;;;;;1.40;0.20;;;4.20;94.40;;;;;;5003973;28;37840;-54
2021/12/02 06:29:26;;;;;;;5.72;0.52;;;4.20;94.30;;;;;;5002059;28;36615;-54
2021/12/02 06:31:53;;;;;;;4.00;0.70;;;4.20;94.30;;;;;;5003490;28;41029;-54
2021/12/02 06:34:22;;;;;;;3.63;1.00;;;4.20;94.40;;;;;;5002008;28;37166;-54
2021/12/02 06:36:49;;;;;;;6.00;1.90;;;4.20;94.30;;;;;;5003658;28;38378;-54
2021/12/02 06:39:17;;;;;;;4.32;1.70;;;4.20;94.40;;;;;;5002851;28;38825;-54
2021/12/02 06:41:44;;;;;;;5.05;1.40;;;4.20;94.30;;;;;;5002417;28;39233;-54
2021/12/02 06:44:13;;;;;;;9.13;2.60;;;4.20;94.40;;;;;;5003453;28;36456;-54
2021/12/02 06:46:40;;;;;;;4.68;1.40;;;4.20;94.40;;;;;;5003203;28;38445;-55
2021/12/02 06:49:08;;;;;;;3.15;0.82;;;4.20;94.50;;;;;;5002922;28;39484;-54
2021/12/02 06:51:36;;;;;;;2.35;0.63;;;4.20;94.50;;;;;;5003873;28;37341;-54
2021/12/02 06:54:04;;;;;;;1.90;0.57;;;4.20;94.60;;;;;;5001780;28;35163;-55
2021/12/02 06:56:32;;;;;;;3.08;0.50;;;4.30;94.70;;;;;;5003433;28;38470;-55
2021/12/02 06:58:59;;;;;;;3.33;0.73;;;4.30;94.60;;;;;;5003856;28;39184;-55
2021/12/02 07:01:26;;;;;;;1.92;0.30;;;4.30;94.60;;;;;;5002856;28;36433;-55
2021/12/02 07:03:54;;;;;;;3.58;0.50;;;4.30;94.60;;;;;;5002950;28;36458;-54
2021/12/02 07:06:21;;;;;;;2.65;0.70;;;4.30;94.70;;;;;;5003507;28;38580;-55
2021/12/02 07:08:50;;;;;;;1.10;0.20;;;4.30;94.60;;;;;;5002230;28;38002;-55
2021/12/02 07:11:17;;;;;;;3.55;0.32;;;4.30;94.60;;;;;;5003748;28;37999;-55
2021/12/02 07:13:47;;;;;;;1.08;0.20;;;4.30;94.60;;;;;;5002490;28;37265;-55
2021/12/02 07:16:15;;;;;;;0.77;0.35;;;4.30;94.50;;;;;;5003612;28;36290;-55
2021/12/02 07:18:47;;;;;;;4.78;0.60;;;4.30;94.40;;;;;;5002864;28;38540;-55
2021/12/02 07:21:14;;;;;;;1.92;0.40;;;4.30;94.30;;;;;;5003053;28;38052;-55
2021/12/02 07:23:42;;;;;;;4.50;0.77;;;4.20;94.40;;;;;;5002065;28;37143;-55
2021/12/02 07:26:11;;;;;;;2.63;0.57;;;4.10;94.30;;;;;;5003626;28;37748;-55
2021/12/02 07:28:38;;;;;;;3.60;0.75;;;4.10;94.30;;;;;;5002957;28;38641;-55
2021/12/02 07:31:06;;;;;;;3.70;0.80;;;4.10;94.30;;;;;;5003863;28;39578;-54
2021/12/02 07:33:37;;;;;;;3.88;0.95;;;4.10;94.30;;;;;;5002705;28;36261;-54
2021/12/02 07:36:05;;;;;;;2.00;0.60;;;4.10;94.30;;;;;;5001874;28;37362;-54
2021/12/02 07:38:33;;;;;;;3.58;0.75;;;4.10;94.30;;;;;;5002396;28;39340;-54
2021/12/02 07:41:03;;;;;;;1.58;0.65;;;4.10;94.30;;;;;;5001007;28;37572;-55
2021/12/02 07:43:33;;;;;;;2.40;0.70;;;4.10;94.30;;;;;;5000308;28;37691;-55
2021/12/02 07:46:02;;;;;;;2.38;0.73;;;4.10;94.40;;;;;;5000650;28;38619;-55
2021/12/02 07:48:30;;;;;;;3.15;0.90;;;4.10;94.40;;;;;;5002415;28;39153;-55
2021/12/02 07:51:02;;;;;;;1.15;0.80;;;4.10;94.40;;;;;;5001509;28;38205;-55
2021/12/02 07:53:29;;;;;;;4.70;0.98;;;4.10;94.40;;;;;;4998387;28;38170;-55
2021/12/02 07:55:58;;;;;;;2.47;0.90;;;4.10;94.40;;;;;;5001136;28;37456;-55
2021/12/02 07:58:25;;;;;;;3.55;1.02;;;4.10;94.40;;;;;;5001610;28;37273;-55
2021/12/02 08:00:59;;;;;;;5.18;1.10;;;4.10;94.40;;;;;;5001352;28;37550;-55
2021/12/02 08:03:27;;;;;;;2.83;1.00;;;4.10;94.50;;;;;;5002197;28;36947;-55
2021/12/02 08:05:55;;;;;;;4.43;1.30;;;4.20;94.50;;;;;;5001744;28;38895;-55
2021/12/02 08:08:22;;;;;;;3.83;1.30;;;4.30;94.40;;;;;;5002490;28;37037;-55
2021/12/02 08:10:49;;;;;;;2.60;1.20;;;4.50;94.40;;;;;;5001991;28;39652;-55
2021/12/02 08:13:17;;;;;;;5.22;1.40;;;4.60;94.30;;;;;;5001831;28;36541;-56
2021/12/02 08:15:44;;;;;;;3.63;1.10;;;4.70;94.30;;;;;;5000986;28;39148;-56
2021/12/02 08:18:13;;;;;;;3.00;1.10;;;4.80;94.10;;;;;;5000767;28;38720;-56
2021/12/02 08:20:40;;;;;;;7.45;2.00;;;4.90;93.90;;;;;;5001044;28;39838;-56
2021/12/02 08:23:08;;;;;;;2.75;1.00;;;4.90;93.70;;;;;;5000696;28;37650;-56
2021/12/02 08:25:35;;;;;;;3.67;1.75;;;4.90;93.70;;;;;;5002139;28;36225;-56
2021/12/02 08:28:03;;;;;;;3.28;1.00;;;4.90;93.80;;;;;;5001410;28;38930;-56
2021/12/02 08:30:33;;;;;;;4.00;1.10;;;5.00;93.80;;;;;;5001493;28;37888;-56
2021/12/02 08:33:02;;;;;;;3.13;1.20;;;5.20;93.90;;;;;;5001967;28;37990;-56
2021/12/02 08:35:32;;;;;;;3.63;1.00;;;5.20;93.80;;;;;;5001051;28;36180;-57
2021/12/02 08:38:02;;;;;;;2.83;0.95;;;5.10;93.80;;;;;;5002119;28;38839;-57
2021/12/02 08:40:32;;;;;;;3.20;1.08;;;5.00;93.80;;;;;;5001235;28;37698;-56
2021/12/02 08:43:00;;;;;;;3.80;1.20;;;5.00;94.00;;;;;;5001048;28;36601;-56
2021/12/02 08:45:28;;;;;;;4.90;1.52;;;5.00;94.10;;;;;;5001071;28;37492;-56
2021/12/02 08:47:56;;;;;;;3.42;1.00;;;5.10;94.10;;;;;;5000230;28;38958;-57
2021/12/02 08:50:24;;;;;;;4.03;1.00;;;5.00;93.90;;;;;;5001829;28;36560;-57
2021/12/02 08:52:54;;;;;;;4.80;1.73;;;5.00;94.00;;;;;;5002394;28;35191;-57
2021/12/02 08:55:24;;;;;;;6.30;2.03;;;5.00;94.00;;;;;;5001081;28;37427;-56
2021/12/02 08:57:53;;;;;;;5.40;1.40;;;5.00;94.00;;;;;;4996649;28;39470;-55
2021/12/02 09:00:25;;;;;;;2.28;1.02;;;5.00;94.00;;;;;;5001338;28;39774;-55
2021/12/02 09:02:54;;;;;;;3.85;1.25;;;5.00;93.90;;;;;;5000567;28;35303;-56
2021/12/02 09:05:21;;;;;;;3.15;1.00;;;5.00;93.80;;;;;;5000458;28;38855;-55
2021/12/02 09:07:49;;;;;;;3.72;1.00;;;4.90;93.90;;;;;;5000156;28;41112;-55
2021/12/02 09:10:21;;;;;;;3.10;1.08;;;4.90;94.10;;;;;;4999184;28;38127;-56
2021/12/02 09:12:48;;;;;;;3.88;0.93;;;4.90;94.20;;;;;;5000864;28;37609;-55
2021/12/02 09:15:17;;;;;;;5.22;0.90;;;4.80;94.10;;;;;;5000671;28;37259;-56
2021/12/02 09:17:44;;;;;;;2.50;0.80;;;4.90;94.20;;;;;;5003810;28;38256;-55
2021/12/02 09:20:15;;;;;;;3.15;0.60;;;4.80;94.10;;;;;;5003370;28;38043;-56
2021/12/02 09:22:42;;;;;;;4.25;0.70;;;4.80;94.30;;;;;;5004893;28;36157;-55
2021/12/02 09:25:11;;;;;;;2.30;0.60;;;4.90;94.50;;;;;;5003772;28;38443;-55
2021/12/02 09:27:40;;;;;;;2.30;0.80;;;4.90;94.40;;;;;;5004084;28;38300;-56
2021/12/02 09:30:08;;;;;;;6.20;0.52;;;4.90;94.30;;;;;;5004744;28;38168;-55
2021/12/02 09:32:38;;;;;;;4.65;0.75;;;4.90;94.00;;;;;;5004961;28;36618;-55
2021/12/02 09:35:07;;;;;;;4.05;0.82;;;4.90;93.80;;;;;;5002326;28;37302;-55
2021/12/02 09:37:35;;;;;;;4.10;0.95;;;4.90;93.90;;;;;;5003467;28;37387;-55
2021/12/02 09:40:03;;;;;;;4.50;0.88;;;5.00;94.20;;;;;;5004661;28;35127;-56
2021/12/02 09:42:30;;;;;;;2.80;0.60;;;5.00;94.30;;;;;;5004673;28;36497;-55
2021/12/02 09:45:00;;;;;;;5.68;0.80;;;5.20;94.70;;;;;;5004519;28;37951;-56
2021/12/02 09:47:30;;;;;;;7.30;1.08;;;6.00;95.20;;;;;;5003755;28;38389;-55
2021/12/02 09:50:01;;;;;;;2.08;0.60;;;6.90;94.30;;;;;;5004736;28;39374;-56
2021/12/02 09:52:33;;;;;;;6.22;0.60;;;7.60;92.60;;;;;;5003816;28;36758;-56
2021/12/02 09:55:04;;;;;;;3.35;0.40;;;7.60;91.10;;;;;;5002867;28;38899;-56
2021/12/02 09:57:45;;;;;;;5.30;0.90;;;7.10;90.20;;;;;;5003087;28;38294;-55
2021/12/02 10:00:18;;;;;;;3.58;0.65;;;6.60;89.60;;;;;;5002933;28;39676;-56
2021/12/02 10:02:53;;;;;;;3.28;0.68;;;5.80;89.20;;;;;;5000237;28;36282;-56
2021/12/02 10:05:35;;;;;;;2.33;0.40;;;5.30;90.30;;;;;;5000294;28;36443;-56
2021/12/02 10:08:06;;;;;;;2.92;0.70;;;4.80;91.00;;;;;;5002101;28;37992;-56
2021/12/02 10:10:39;;;;;;;2.50;0.80;;;4.50;91.70;;;;;;5002745;28;37719;-56
2021/12/02 10:13:19;;;;;;;2.83;0.60;;;4.30;92.20;;;;;;5003320;28;35491;-56
2021/12/02 10:16:04;;;;;;;2.60;0.50;;;4.10;92.60;;;;;;4999354;28;37418;-56
2021/12/02 10:18:38;;;;;;;4.13;0.70;;;4.10;93.10;;;;;;5002935;28;38891;-56
2021/12/02 10:21:19;;;;;;;1.25;0.45;;;4.00;93.20;;;;;;5003233;28;38863;-56
2021/12/02 10:23:47;;;;;;;3.38;0.60;;;4.10;93.40;;;;;;5003157;28;36497;-56
2021/12/02 10:26:18;;;;;;;2.63;0.57;;;4.10;93.50;;;;;;5002598;28;37118;-56
2021/12/02 10:28:47;;;;;;;2.30;0.90;;;4.20;93.90;;;;;;5001996;28;41095;-56
2021/12/02 10:31:22;;;;;;;2.70;0.73;;;4.20;93.80;;;;;;5001955;28;36478;-56
2021/12/02 10:33:53;;;;;;;2.28;0.85;;;4.30;93.80;;;;;;5002009;28;36561;-57
2021/12/02 10:36:33;;;;;;;2.15;0.80;;;4.30;93.70;;;;;;5003402;28;37331;-56
2021/12/02 10:39:07;;;;;;;4.28;0.70;;;4.30;93.90;;;;;;5003401;28;37653;-56
2021/12/02 10:41:34;;;;;;;;;;;4.30;93.90;;;;;;5001676;28;38459;-56
2021/12/02 10:44:06;;;;;;;1.45;0.57;;;4.40;94.10;;;;;;5003639;28;35352;-56
2021/12/02 10:46:36;;;;;;;1.55;0.95;;;4.40;93.70;;;;;;5001787;28;37462;-57
2021/12/02 10:49:06;;;;;;;1.45;0.63;;;4.30;93.80;;;;;;5002373;28;38467;-56
2021/12/02 10:51:38;;;;;;;2.15;0.40;;;4.40;94.00;;;;;;4999736;28;37378;-56
2021/12/02 10:54:13;;;;;;;4.63;0.95;;;4.30;93.90;;;;;;5001128;28;35934;-56
2021/12/02 10:56:42;;;;;;;4.25;1.50;;;4.40;93.90;;;;;;5002605;28;37939;-56
2021/12/02 10:59:30;;;;;;;1.67;0.60;;;4.30;93.50;;;;;;5002766;28;39325;-56
2021/12/02 11:02:00;;;;;;;2.00;0.80;;;4.30;93.50;;;;;;5002493;28;36336;-56
2021/12/02 11:04:35;;;;;;;0.98;0.40;;;4.30;93.60;;;;;;5002982;28;37250;-56
2021/12/02 11:07:09;;;;;;;2.03;0.70;;;4.30;93.60;;;;;;5002093;28;37890;-55
2021/12/02 11:09:36;;;;;;;;;;;4.20;93.60;;;;;;5002213;28;40054;-56
2021/12/02 11:12:21;;;;;;;3.58;1.58;;;4.20;93.50;;;;;;5002008;28;36109;-58
2021/12/02 11:15:08;;;;;;;4.85;1.92;;;4.10;93.60;;;;;;5000760;28;35764;-57
2021/12/02 11:17:41;;;;;;;1.85;0.50;;;4.00;93.80;;;;;;5002748;28;36572;-57
2021/12/02 11:20:12;;;;;;;1.25;0.45;;;4.00;93.70;;;;;;5002247;28;38118;-54
2021/12/02 11:22:40;;;;;;;3.53;0.95;;;4.00;93.80;;;;;;4994847;28;37017;-55
2021/12/02 11:25:10;;;;;;;1.85;0.60;;;4.00;93.90;;;;;;5001088;28;37720;-54
2021/12/02 11:27:40;;;;;;;1.55;0.40;;;4.00;93.70;;;;;;5001946;28;36766;-54
2021/12/02 11:30:11;;;;;;;0.88;0.30;;;4.10;93.80;;;;;;5002280;28;38474;-54
2021/12/02 11:32:47;;;;;;;1.08;0.43;;;4.10;93.90;;;;;;5001648;28;38052;-55
2021/12/02 11:35:24;;;;;;;4.43;0.70;;;4.20;93.80;;;;;;5003166;28;35502;-55
2021/12/02 11:37:54;;;;;;;1.75;0.40;;;4.10;93.70;;;;;;5000662;28;37555;-55
2021/12/02 11:40:26;;;;;;;3.00;0.50;;;4.10;93.80;;;;;;5000516;28;38541;-54
2021/12/02 11:42:54;;;;;;;1.67;0.22;;;4.10;93.80;;;;;;5001422;28;37558;-55
2021/12/02 11:45:23;;;;;;;4.43;0.50;;;4.00;94.10;;;;;;5003362;28;36917;-55
2021/12/02 11:47:53;;;;;;;3.05;0.70;;;4.10;94.00;;;;;;5000774;28;37310;-55
2021/12/02 11:50:24;;;;;;;3.47;0.90;;;4.20;94.00;;;;;;5002265;28;38585;-55
2021/12/02 11:52:52;;;;;;;2.03;0.73;;;4.10;93.90;;;;;;5002105;28;37299;-55
2021/12/02 11:55:22;;;;;;;2.88;1.10;;;4.10;93.70;;;;;;5002095;28;36589;-54
2021/12/02 11:57:51;;;;;;;2.80;1.15;;;4.10;93.70;;;;;;5001488;28;37752;-55
2021/12/02 12:00:21;;;;;;;3.28;1.05;;;4.10;93.90;;;;;;5001361;28;39135;-55
2021/12/02 12:02:53;;;;;;;4.53;1.48;;;4.10;93.70;;;;;;5001693;28;39088;-55
2021/12/02 12:05:25;;;;;;;2.42;0.88;;;4.10;93.50;;;;;;5002522;28;35414;-55
2021/12/02 12:07:53;;;;;;;5.07;1.70;;;4.10;93.60;;;;;;5001616;28;38379;-55
2021/12/02 12:10:25;;;;;;;5.03;1.90;;;4.30;93.70;;;;;;5001960;28;38845;-55
2021/12/02 12:12:54;;;;;;;4.35;1.45;;;4.40;93.50;;;;;;5001016;28;38459;-55
2021/12/02 12:15:32;;;;;;;3.28;0.90;;;4.50;93.60;;;;;;5002234;28;36749;-55
2021/12/02 12:18:02;;;;;;;4.60;0.90;;;4.60;93.90;;;;;;5000916;28;37943;-55
2021/12/02 12:21:06;;;;;;;3.22;0.50;;;4.80;94.20;;;;;;5001976;28;39935;-55
2021/12/02 12:23:36;;;;;;;7.63;1.20;;;4.80;93.40;;;;;;5000814;28;38018;-55
2021/12/02 12:26:19;;;;;;;2.67;0.63;;;4.70;93.00;;;;;;5001086;28;36465;-55
2021/12/02 12:29:28;;;;;;;2.35;0.93;;;4.60;93.20;;;;;;5001128;28;37071;-55
2021/12/02 12:32:41;;;;;;;2.90;1.00;;;4.50;93.30;;;;;;5000036;28;37741;-55
2021/12/02 12:35:20;;;;;;;4.78;0.50;;;4.40;93.50;;;;;;5002387;28;39889;-54
2021/12/02 12:38:00;;;;;;;2.95;0.30;;;4.30;93.40;;;;;;5000632;28;36402;-54
2021/12/02 12:40:44;;;;;;;0.30;0.10;;;4.20;93.20;;;;;;5001914;28;38742;-54
2021/12/02 12:43:40;;;;;;;0.90;0.20;;;4.00;93.30;;;;;;4999900;28;39277;-54
2021/12/02 12:46:14;;;;;;;1.50;0.20;;;3.90;93.30;;;;;;5001496;28;38746;-54
2021/12/02 12:48:42;;;;;;;0.55;0.20;;;3.80;93.70;;;;;;5000214;28;37845;-54
2021/12/02 12:51:27;;;;;;;1.98;0.20;;;3.80;93.60;;;;;;4999964;28;37947;-54
2021/12/02 12:53:56;;;;;;;0.73;0.30;;;3.80;93.80;;;;;;5001147;28;38155;-54
2021/12/02 12:56:29;;;;;;;0.68;0.30;;;3.80;93.90;;;;;;5001718;28;37698;-54
2021/12/02 12:59:00;;;;;;;1.10;0.38;;;3.80;94.00;;;;;;5001184;28;36486;-54
2021/12/02 13:01:28;;;;;;;1.95;0.50;;;3.90;94.20;;;;;;5001720;28;39147;-54
2021/12/02 13:04:11;;;;;;;2.10;0.40;;;4.00;94.20;;;;;;4996903;28;41216;-54
2021/12/02 13:07:18;;;;;;;0.90;0.25;;;4.10;94.10;;;;;;4998179;28;37975;-54
2021/12/02 13:09:58;;;;;;;0.47;0.20;;;4.10;94.10;;;;;;4998239;28;36818;-54
2021/12/02 13:12:48;;;;;;;1.50;0.20;;;4.20;94.00;;;;;;4997509;28;37698;-54
2021/12/02 13:15:21;;;;;;;1.40;0.32;;;4.20;93.90;;;;;;4996564;28;39900;-54
2021/12/02 13:17:50;;;;;;;0.23;0.17;;;4.30;94.00;;;;;;4998385;28;38930;-54
2021/12/02 13:20:41;;;;;;;7.25;2.42;;;4.30;93.90;;;;;;4997269;28;36871;-54